Time;durP1;ratioP1;P1;durP2;ratioP2;P2;SDS_P1;SDS_P2;PMS_P1;PMS_P2;Temp;Humidity;BMP_temperature;BMP_pressure;BME280_temperature;BME280_humidity;BME280_pressure;Samples;Min_cycle;Max_cycle;Signal;HPM_P1;HPM_P2
2023/07/27 00:02:19;;;;;;;5.68;3.00;;;;;;;10.04;100.00;96665.50;5015423;28;20717;-67
2023/07/27 00:04:44;;;;;;;4.60;2.90;;;;;;;10.03;100.00;96665.88;5022148;28;20041;-65
2023/07/27 00:07:09;;;;;;;4.20;2.88;;;;;;;10.16;100.00;96667.28;5016755;28;20042;-68
2023/07/27 00:09:35;;;;;;;5.47;3.50;;;;;;;10.16;100.00;96664.56;5021450;28;20033;-69
2023/07/27 00:12:00;;;;;;;4.53;2.80;;;;;;;10.11;100.00;96665.63;5019187;28;20049;-68
2023/07/27 00:14:26;;;;;;;5.35;2.90;;;;;;;10.05;100.00;96667.09;5016761;28;20413;-68
2023/07/27 00:16:51;;;;;;;6.38;3.15;;;;;;;10.08;100.00;96676.53;5021966;28;20049;-68
2023/07/27 00:19:16;;;;;;;4.15;2.83;;;;;;;10.03;100.00;96674.09;5016999;28;20398;-67
2023/07/27 00:21:42;;;;;;;6.50;3.00;;;;;;;10.00;100.00;96672.09;5022010;28;20083;-68
2023/07/27 00:24:07;;;;;;;3.45;2.60;;;;;;;9.95;100.00;96676.69;5015880;28;20566;-66
2023/07/27 00:26:32;;;;;;;5.30;2.78;;;;;;;10.02;100.00;96673.31;5021368;28;20046;-66
2023/07/27 00:28:58;;;;;;;5.90;3.47;;;;;;;10.01;100.00;96666.25;5019325;28;20495;-65
2023/07/27 00:31:23;;;;;;;5.30;3.22;;;;;;;10.00;100.00;96661.16;5016722;28;20499;-68
2023/07/27 00:33:49;;;;;;;5.20;2.90;;;;;;;10.07;100.00;96661.28;5020861;28;20208;-67
2023/07/27 00:36:14;;;;;;;4.90;2.38;;;;;;;10.06;100.00;96654.22;5015303;28;20044;-68
2023/07/27 00:38:39;;;;;;;4.40;3.00;;;;;;;10.07;100.00;96653.84;5022425;28;20063;-69
2023/07/27 00:41:05;;;;;;;6.07;2.58;;;;;;;9.99;100.00;96656.81;5013609;28;20049;-68
2023/07/27 00:43:30;;;;;;;7.45;2.85;;;;;;;9.92;100.00;96652.81;5001978;28;20517;-67
2023/07/27 00:45:57;;;;;;;6.38;2.75;;;;;;;9.87;100.00;96655.06;5001133;28;20461;-68
2023/07/27 00:48:22;;;;;;;6.78;2.97;;;;;;;9.89;100.00;96656.25;4995239;28;20533;-66
2023/07/27 00:50:50;;;;;;;7.95;2.80;;;;;;;9.85;100.00;96655.41;5000152;28;20494;-67
2023/07/27 00:53:16;;;;;;;7.78;2.60;;;;;;;9.82;100.00;96649.88;4996050;28;20132;-67
2023/07/27 00:55:43;;;;;;;6.13;2.75;;;;;;;9.83;100.00;96652.25;5001447;28;20034;-69
2023/07/27 00:58:08;;;;;;;4.63;3.22;;;;;;;9.82;100.00;96644.41;4995393;28;20081;-67
2023/07/27 01:00:34;;;;;;;4.68;2.80;;;;;;;9.77;100.00;96642.75;5000997;28;20076;-67
2023/07/27 01:03:00;;;;;;;5.32;3.08;;;;;;;9.74;100.00;96640.72;5000173;28;20132;-67
2023/07/27 01:05:26;;;;;;;5.45;3.15;;;;;;;9.69;100.00;96641.84;4996107;28;20042;-67
2023/07/27 01:07:52;;;;;;;6.93;3.15;;;;;;;9.68;100.00;96636.72;5000803;28;20037;-67
2023/07/27 01:10:21;;;;;;;5.10;2.55;;;;;;;9.66;100.00;96633.56;4996554;28;20046;-67
2023/07/27 01:12:54;;;;;;;6.60;2.97;;;;;;;9.67;100.00;96638.69;5001206;28;20046;-68
2023/07/27 01:15:24;;;;;;;4.18;3.00;;;;;;;9.65;100.00;96631.97;4997316;28;20048;-66
2023/07/27 01:17:55;;;;;;;5.30;3.40;;;;;;;9.62;100.00;96628.03;5001663;28;20094;-66
2023/07/27 01:20:33;;;;;;;6.22;3.90;;;;;;;9.56;100.00;96630.25;4995460;28;20046;-68
2023/07/27 01:23:20;;;;;;;5.93;3.10;;;;;;;9.54;100.00;96624.38;4998774;28;20099;-67
2023/07/27 01:26:07;;;;;;;5.43;3.25;;;;;;;9.55;100.00;96623.19;5000672;28;20072;-68
2023/07/27 01:28:54;;;;;;;6.47;3.35;;;;;;;9.50;100.00;96612.56;5001295;28;20395;-67
2023/07/27 01:31:22;;;;;;;4.40;2.83;;;;;;;9.49;100.00;96608.25;4997195;28;20048;-67
2023/07/27 01:33:59;;;;;;;5.90;2.78;;;;;;;9.42;100.00;96604.56;5000713;28;20042;-68
2023/07/27 01:36:29;;;;;;;5.15;3.33;;;;;;;9.33;100.00;96602.88;4995316;28;20053;-67
2023/07/27 01:38:59;;;;;;;7.65;3.58;;;;;;;9.26;100.00;96601.94;5000059;28;20056;-68
2023/07/27 01:41:27;;;;;;;5.60;3.72;;;;;;;9.23;100.00;96597.97;4994719;28;20073;-67
2023/07/27 01:43:53;;;;;;;5.75;3.42;;;;;;;9.29;100.00;96601.22;5000423;28;20133;-66
2023/07/27 01:46:20;;;;;;;5.53;3.65;;;;;;;9.35;100.00;96595.09;4994718;28;20034;-67
2023/07/27 01:48:47;;;;;;;6.30;3.75;;;;;;;9.40;100.00;96585.81;4998978;28;20045;-67
2023/07/27 01:51:14;;;;;;;4.88;3.55;;;;;;;9.37;100.00;96592.00;4994999;28;20088;-68
2023/07/27 01:53:41;;;;;;;7.68;3.78;;;;;;;9.41;100.00;96598.31;5000066;28;20042;-65
2023/07/27 01:56:07;;;;;;;5.68;3.22;;;;;;;9.43;100.00;96592.50;4995581;28;20038;-66
2023/07/27 01:58:35;;;;;;;5.50;3.42;;;;;;;9.41;100.00;96590.13;5001834;28;20125;-66
2023/07/27 02:01:01;;;;;;;10.55;3.78;;;;;;;9.40;100.00;96590.47;5002961;28;20046;-67
2023/07/27 02:03:27;;;;;;;5.88;3.30;;;;;;;9.36;100.00;96585.75;4997613;28;20050;-66
2023/07/27 02:05:52;;;;;;;6.68;3.35;;;;;;;9.30;100.00;96592.66;5000382;28;20050;-67
2023/07/27 02:08:18;;;;;;;5.65;3.33;;;;;;;9.27;100.00;96589.84;4997303;28;20124;-67
2023/07/27 02:10:46;;;;;;;5.95;3.67;;;;;;;9.23;100.00;96591.72;5001019;28;20107;-66
2023/07/27 02:13:21;;;;;;;5.03;3.60;;;;;;;9.28;100.00;96575.03;4996878;28;20132;-66
2023/07/27 02:16:04;;;;;;;5.72;3.28;;;;;;;9.26;100.00;96582.81;5002439;28;20045;-68
2023/07/27 02:18:32;;;;;;;8.23;3.78;;;;;;;9.24;100.00;96572.25;4999766;28;20042;-69
2023/07/27 02:20:59;;;;;;;5.55;3.42;;;;;;;9.36;100.00;96574.81;5002113;28;20038;-66
2023/07/27 02:23:24;;;;;;;6.35;3.95;;;;;;;9.40;100.00;96566.69;4996561;28;20073;-66
2023/07/27 02:25:51;;;;;;;5.50;3.47;;;;;;;9.36;100.00;96563.88;5001254;28;20038;-66
2023/07/27 02:28:16;;;;;;;7.28;3.25;;;;;;;9.36;100.00;96561.16;4994959;28;20490;-68
2023/07/27 02:30:42;;;;;;;6.10;3.78;;;;;;;9.33;100.00;96566.56;5002525;28;20135;-66
2023/07/27 02:33:08;;;;;;;4.22;2.78;;;;;;;9.34;100.00;96559.91;4996688;28;20479;-67
2023/07/27 02:35:33;;;;;;;5.07;3.13;;;;;;;9.33;100.00;96556.41;5003298;28;20041;-65
2023/07/27 02:37:58;;;;;;;5.07;3.50;;;;;;;9.27;100.00;96546.13;5006807;28;20041;-65
2023/07/27 02:40:24;;;;;;;6.07;3.10;;;;;;;9.31;100.00;96542.31;5001444;28;21081;-66
2023/07/27 02:42:49;;;;;;;4.70;3.00;;;;;;;9.37;100.00;96535.38;5006567;28;20050;-69
2023/07/27 02:45:14;;;;;;;5.03;3.00;;;;;;;9.30;100.00;96534.47;5002012;28;20606;-66
2023/07/27 02:47:40;;;;;;;5.72;3.60;;;;;;;9.25;100.00;96529.31;5009155;28;20045;-69
2023/07/27 02:50:06;;;;;;;8.15;3.08;;;;;;;9.22;100.00;96521.81;5001932;28;20099;-67
2023/07/27 02:52:31;;;;;;;4.05;2.67;;;;;;;9.15;100.00;96523.28;5006424;28;20042;-67
2023/07/27 02:54:56;;;;;;;6.40;3.30;;;;;;;9.18;100.00;96522.56;5007030;28;20049;-65
2023/07/27 02:57:22;;;;;;;4.57;3.00;;;;;;;9.20;100.00;96522.19;5003438;28;20100;-67
2023/07/27 02:59:47;;;;;;;5.40;3.05;;;;;;;9.21;100.00;96523.78;5006943;28;20044;-66
2023/07/27 03:02:13;;;;;;;6.18;3.38;;;;;;;9.23;100.00;96516.00;4999846;28;20126;-68
2023/07/27 03:04:38;;;;;;;3.47;2.97;;;;;;;9.24;100.00;96519.50;5007620;28;20061;-67
2023/07/27 03:07:04;;;;;;;5.35;2.95;;;;;;;9.41;100.00;96515.53;5001159;28;20044;-68
2023/07/27 03:09:29;;;;;;;6.15;3.10;;;;;;;9.52;100.00;96521.97;5003091;28;20050;-68
2023/07/27 03:11:54;;;;;;;9.80;3.17;;;;;;;9.58;100.00;96517.81;5003612;28;20578;-66
2023/07/27 03:14:20;;;;;;;4.72;3.15;;;;;;;9.46;100.00;96520.72;4999181;28;20049;-68
2023/07/27 03:16:45;;;;;;;5.35;2.97;;;;;;;9.56;100.00;96526.38;5005650;28;20725;-68
2023/07/27 03:19:11;;;;;;;3.72;2.50;;;;;;;9.61;100.00;96519.78;5002439;28;20077;-68
2023/07/27 03:21:36;;;;;;;6.40;2.72;;;;;;;9.66;100.00;96532.38;5005944;28;20728;-65
2023/07/27 03:24:01;;;;;;;4.35;2.97;;;;;;;9.57;100.00;96535.34;5006347;28;20045;-65
2023/07/27 03:26:27;;;;;;;5.50;2.67;;;;;;;9.55;100.00;96532.97;5003762;28;20045;-67
2023/07/27 03:28:52;;;;;;;5.20;2.65;;;;;;;9.64;100.00;96529.22;5005137;28;20076;-66
2023/07/27 03:31:19;;;;;;;4.35;2.50;;;;;;;9.81;100.00;96527.94;5002036;28;20048;-66
2023/07/27 03:33:45;;;;;;;3.83;2.58;;;;;;;9.79;100.00;96522.81;5006091;28;20387;-67
2023/07/27 03:36:11;;;;;;;5.88;3.10;;;;;;;9.86;100.00;96522.16;5001498;28;20041;-67
2023/07/27 03:38:36;;;;;;;4.97;2.80;;;;;;;9.83;100.00;96520.16;5007501;28;20065;-65
2023/07/27 03:41:02;;;;;;;7.13;2.80;;;;;;;9.91;100.00;96528.09;5004660;28;20046;-71
2023/07/27 03:43:27;;;;;;;4.88;2.88;;;;;;;9.91;100.00;96519.13;5003108;28;20053;-68
2023/07/27 03:45:53;;;;;;;6.13;2.50;;;;;;;9.88;100.00;96519.84;5006001;28;20052;-67
2023/07/27 03:48:18;;;;;;;3.92;2.20;;;;;;;9.84;100.00;96511.59;5000588;28;20050;-68
2023/07/27 03:50:44;;;;;;;4.22;2.80;;;;;;;9.66;100.00;96521.44;5004564;28;20625;-68
2023/07/27 03:53:09;;;;;;;5.55;2.75;;;;;;;9.48;100.00;96524.66;5003178;28;20124;-69
2023/07/27 03:55:35;;;;;;;5.90;3.20;;;;;;;9.42;100.00;96514.38;5006641;28;20069;-67
2023/07/27 03:58:00;;;;;;;6.78;2.90;;;;;;;9.33;100.00;96511.91;5004188;28;20114;-66
2023/07/27 04:00:25;;;;;;;6.68;3.70;;;;;;;9.20;100.00;96505.81;5000348;28;20053;-67
2023/07/27 04:02:51;;;;;;;4.05;3.15;;;;;;;9.16;100.00;96511.22;5003911;28;20233;-67
2023/07/27 04:05:16;;;;;;;5.85;3.35;;;;;;;9.24;100.00;96512.13;4999775;28;20037;-70
2023/07/27 04:07:41;;;;;;;5.82;2.95;;;;;;;9.38;100.00;96511.56;5003078;28;20062;-67
2023/07/27 04:10:07;;;;;;;6.55;3.15;;;;;;;9.61;100.00;96516.28;5001816;28;20564;-67
2023/07/27 04:12:33;;;;;;;4.75;3.15;;;;;;;9.66;100.00;96522.22;5013462;28;20046;-71
2023/07/27 04:14:58;;;;;;;7.88;2.95;;;;;;;9.75;100.00;96513.78;5024478;28;20037;-69
2023/07/27 04:17:24;;;;;;;5.72;3.55;;;;;;;9.95;100.00;96511.75;5018534;28;20041;-69
2023/07/27 04:19:49;;;;;;;6.32;2.95;;;;;;;10.11;100.00;96515.13;5011307;28;20095;-68
2023/07/27 04:22:15;;;;;;;4.13;2.75;;;;;;;10.28;100.00;96510.28;5000073;28;20099;-66
2023/07/27 04:24:44;;;;;;;4.57;2.65;;;;;;;10.50;100.00;96511.41;5004334;28;20044;-68
2023/07/27 04:27:10;;;;;;;6.03;3.35;;;;;;;10.50;100.00;96505.94;4998392;28;20147;-67
2023/07/27 04:29:36;;;;;;;5.50;2.55;;;;;;;10.33;100.00;96510.00;5004193;28;20437;-67
2023/07/27 04:32:01;;;;;;;4.75;2.60;;;;;;;10.42;100.00;96507.00;5003593;28;20038;-67
2023/07/27 04:34:27;;;;;;;4.97;2.38;;;;;;;10.29;100.00;96501.69;5001628;28;20132;-67
2023/07/27 04:36:52;;;;;;;8.15;3.05;;;;;;;10.13;100.00;96501.84;5000816;28;20050;-67
2023/07/27 04:39:18;;;;;;;3.80;2.42;;;;;;;10.17;100.00;96501.13;4998123;28;20034;-66
2023/07/27 04:41:43;;;;;;;5.25;2.33;;;;;;;10.42;100.00;96496.81;5002534;28;20045;-70
2023/07/27 04:44:08;;;;;;;5.32;2.60;;;;;;;10.65;100.00;96499.47;4997553;28;20536;-66
2023/07/27 04:46:35;;;;;;;5.45;2.53;;;;;;;10.85;100.00;96496.59;5004583;28;20438;-68
2023/07/27 04:49:01;;;;;;;3.60;2.28;;;;;;;11.02;100.00;96501.50;5004485;28;20037;-67
2023/07/27 04:51:26;;;;;;;5.25;2.60;;;;;;;11.18;100.00;96506.78;4997990;28;20077;-66
2023/07/27 04:53:52;;;;;;;5.55;2.90;;;;;;;11.35;100.00;96502.63;5002050;28;20049;-66
2023/07/27 04:56:17;;;;;;;4.68;2.38;;;;;;;11.52;100.00;96509.44;5004601;28;20113;-68
2023/07/27 04:58:42;;;;;;;8.35;2.55;;;;;;;11.59;100.00;96500.50;5005454;28;20052;-68
2023/07/27 05:01:08;;;;;;;7.68;2.80;;;;;;;11.41;100.00;96501.09;5000750;28;20038;-69
2023/07/27 05:03:33;;;;;;;4.82;2.70;;;;;;;10.77;100.00;96487.50;5001309;28;20064;-66
2023/07/27 05:05:59;;;;;;;5.53;3.28;;;;;;;10.74;100.00;96488.25;5004048;28;20046;-69
2023/07/27 05:08:24;;;;;;;4.88;2.88;;;;;;;10.87;100.00;96483.31;4998674;28;20076;-68
2023/07/27 05:10:49;;;;;;;4.28;2.92;;;;;;;10.98;100.00;96492.44;5002892;28;20038;-66
2023/07/27 05:13:15;;;;;;;4.45;2.70;;;;;;;10.93;100.00;96487.31;4997984;28;20041;-66
2023/07/27 05:15:41;;;;;;;4.63;2.88;;;;;;;11.03;100.00;96486.63;5004312;28;20166;-68
2023/07/27 05:18:06;;;;;;;4.68;2.88;;;;;;;11.10;100.00;96488.66;4999029;28;20473;-67
2023/07/27 05:20:34;;;;;;;6.72;2.70;;;;;;;11.13;100.00;96485.16;5002632;28;20042;-67
2023/07/27 05:23:00;;;;;;;5.68;2.65;;;;;;;11.20;100.00;96487.19;5000752;28;20050;-67
2023/07/27 05:25:25;;;;;;;6.60;3.25;;;;;;;11.28;100.00;96483.34;4997661;28;20042;-66
2023/07/27 05:27:50;;;;;;;6.13;2.67;;;;;;;11.60;100.00;96494.63;5000590;28;20049;-67
2023/07/27 05:30:16;;;;;;;6.70;2.67;;;;;;;12.04;100.00;96491.09;4999025;28;20649;-68
2023/07/27 05:32:41;;;;;;;4.05;2.80;;;;;;;12.46;100.00;96493.72;5001932;28;20038;-67
2023/07/27 05:35:07;;;;;;;4.78;2.63;;;;;;;12.93;100.00;96497.47;4997759;28;20042;-69
2023/07/27 05:37:33;;;;;;;6.90;2.47;;;;;;;13.37;100.00;96507.44;5003379;28;20054;-65
2023/07/27 05:39:58;;;;;;;5.50;2.30;;;;;;;13.72;100.00;96503.16;5003342;28;20118;-66
2023/07/27 05:42:23;;;;;;;3.85;2.03;;;;;;;14.01;100.00;96508.69;4998206;28;20045;-68
2023/07/27 05:44:49;;;;;;;3.97;2.45;;;;;;;14.01;100.00;96504.00;5003278;28;20043;-67
2023/07/27 05:47:14;;;;;;;3.72;2.22;;;;;;;14.10;100.00;96509.88;4998498;28;20053;-66
2023/07/27 05:49:40;;;;;;;3.92;2.53;;;;;;;14.23;100.00;96513.00;5002595;28;20065;-66
2023/07/27 05:52:06;;;;;;;2.78;2.08;;;;;;;14.41;100.00;96506.69;4997915;28;20382;-68
2023/07/27 05:54:31;;;;;;;6.28;2.17;;;;;;;14.58;100.00;96505.09;5002107;28;20541;-68
2023/07/27 05:56:57;;;;;;;5.53;2.30;;;;;;;14.73;100.00;96501.16;5001316;28;20101;-66
2023/07/27 05:59:22;;;;;;;8.05;2.42;;;;;;;14.56;100.00;96501.94;4997858;28;20062;-67
2023/07/27 06:01:47;;;;;;;4.28;2.60;;;;;;;13.76;100.00;96496.50;5003804;28;20051;-67
2023/07/27 06:04:13;;;;;;;5.20;2.70;;;;;;;13.38;100.00;96495.28;4998246;28;20743;-67
2023/07/27 06:06:38;;;;;;;4.80;2.60;;;;;;;13.24;100.00;96496.00;5002581;28;20092;-67
2023/07/27 06:09:04;;;;;;;6.38;2.58;;;;;;;13.06;100.00;96498.69;4998305;28;20107;-69
2023/07/27 06:11:29;;;;;;;8.82;2.70;;;;;;;13.29;100.00;96495.63;5004219;28;20382;-67
2023/07/27 06:13:54;;;;;;;6.22;2.72;;;;;;;13.20;100.00;96495.22;5006383;28;20502;-68
2023/07/27 06:16:20;;;;;;;5.82;2.55;;;;;;;13.05;100.00;96490.84;5001689;28;20494;-67
2023/07/27 06:18:46;;;;;;;3.95;2.17;;;;;;;12.84;100.00;96488.78;5004772;28;20380;-66
2023/07/27 06:21:11;;;;;;;5.35;2.63;;;;;;;12.64;100.00;96494.59;4999919;28;20048;-67
2023/07/27 06:23:36;;;;;;;4.85;2.70;;;;;;;12.74;100.00;96499.34;5006010;28;20050;-68
2023/07/27 06:26:02;;;;;;;5.63;2.40;;;;;;;13.00;100.00;96501.03;5014778;28;20056;-69
2023/07/27 06:28:27;;;;;;;4.72;2.53;;;;;;;13.16;100.00;96494.41;5015767;28;20057;-66
2023/07/27 06:30:53;;;;;;;4.47;2.42;;;;;;;13.33;100.00;96498.41;5004383;28;20092;-68
2023/07/27 06:33:18;;;;;;;3.47;2.10;;;;;;;13.38;100.00;96504.31;4998585;28;20041;-67
2023/07/27 06:35:44;;;;;;;3.33;2.40;;;;;;;13.65;100.00;96498.47;5004021;28;20038;-67
2023/07/27 06:38:09;;;;;;;4.28;2.60;;;;;;;13.72;100.00;96503.97;5001523;28;20103;-67
2023/07/27 06:40:35;;;;;;;4.97;2.42;;;;;;;13.47;100.00;96503.13;5003058;28;20449;-67
2023/07/27 06:43:00;;;;;;;5.07;3.30;;;;;;;13.55;100.00;96504.72;5003512;28;20038;-68
2023/07/27 06:45:26;;;;;;;6.65;2.40;;;;;;;13.95;100.00;96511.06;5000908;28;20042;-67
2023/07/27 06:47:51;;;;;;;4.40;2.25;;;;;;;14.09;100.00;96502.00;5005092;28;20046;-68
2023/07/27 06:50:16;;;;;;;4.47;2.83;;;;;;;14.26;100.00;96498.47;5002029;28;20787;-69
2023/07/27 06:52:42;;;;;;;4.32;2.28;;;;;;;14.49;100.00;96500.75;5005424;28;20064;-68
2023/07/27 06:55:08;;;;;;;8.27;2.60;;;;;;;13.61;100.00;96500.41;5001818;28;20041;-68
2023/07/27 06:57:33;;;;;;;4.10;2.78;;;;;;;13.68;100.00;96496.88;5004822;28;20539;-67
2023/07/27 06:59:59;;;;;;;4.95;2.72;;;;;;;13.92;100.00;96504.38;5006872;28;20495;-68
2023/07/27 07:02:24;;;;;;;3.67;2.58;;;;;;;14.26;100.00;96503.97;5000200;28;20096;-68
2023/07/27 07:04:49;;;;;;;4.38;2.55;;;;;;;14.30;100.00;96498.44;5006092;28;20042;-68
2023/07/27 07:07:15;;;;;;;4.55;2.47;;;;;;;14.49;100.00;96494.47;4985009;28;20550;-67
2023/07/27 07:09:40;;;;;;;5.32;2.20;;;;;;;14.62;100.00;96495.66;5020720;28;20042;-69
2023/07/27 07:12:06;;;;;;;4.35;2.47;;;;;;;14.35;100.00;96498.06;4998439;28;20578;-66
2023/07/27 07:14:32;;;;;;;6.57;2.13;;;;;;;14.37;100.00;96503.16;5003864;28;20077;-66
2023/07/27 07:16:59;;;;;;;7.10;2.80;;;;;;;14.70;100.00;96504.69;5004355;28;20073;-68
2023/07/27 07:19:24;;;;;;;16.00;10.00;;;;;;;14.06;100.00;96495.34;5000239;28;20041;-67
2023/07/27 07:21:49;;;;;;;15.25;9.48;;;;;;;13.61;100.00;96492.16;5004471;28;20041;-68
2023/07/27 07:24:15;;;;;;;13.68;8.23;;;;;;;13.69;100.00;96495.72;5001041;28;20042;-68
2023/07/27 07:26:40;;;;;;;10.38;6.95;;;;;;;13.92;100.00;96489.84;5004452;28;20049;-67
2023/07/27 07:29:07;;;;;;;13.23;6.25;;;;;;;13.79;100.00;96494.13;4999080;28;20130;-69
2023/07/27 07:31:32;;;;;;;13.13;7.30;;;;;;;13.39;100.00;96502.34;5005375;28;20042;-67
2023/07/27 07:33:58;;;;;;;14.98;8.10;;;;;;;13.44;100.00;96501.97;5003348;28;20060;-67
2023/07/27 07:36:25;;;;;;;17.80;9.90;;;;;;;13.45;100.00;96498.06;5000109;28;20529;-69
2023/07/27 07:38:51;;;;;;;29.92;14.65;;;;;;;13.38;100.00;96501.56;5004623;28;20097;-66
2023/07/27 07:41:16;;;;;;;22.67;14.05;;;;;;;13.23;100.00;96501.88;4999292;28;20506;-68
2023/07/27 07:43:41;;;;;;;25.85;13.88;;;;;;;13.54;100.00;96495.69;5003458;28;20053;-67
2023/07/27 07:46:11;;;;;;;17.50;11.05;;;;;;;13.66;100.00;96499.25;4999251;28;20061;-66
2023/07/27 07:48:36;;;;;;;22.92;10.25;;;;;;;14.02;100.00;96491.00;5002303;28;20044;-66
2023/07/27 07:51:02;;;;;;;23.30;12.45;;;;;;;14.45;100.00;96485.44;5004076;28;20394;-67
2023/07/27 07:53:27;;;;;;;20.65;11.35;;;;;;;14.97;100.00;96485.69;4999278;28;20100;-67
2023/07/27 07:55:52;;;;;;;18.30;8.88;;;;;;;15.15;100.00;96485.59;5003251;28;20041;-66
2023/07/27 07:58:18;;;;;;;24.27;10.52;;;;;;;15.48;100.00;96484.22;5001040;28;20041;-68
2023/07/27 08:00:43;;;;;;;23.65;9.45;;;;;;;15.30;100.00;96486.28;5005842;28;20034;-67
2023/07/27 08:03:09;;;;;;;11.57;6.25;;;;;;;15.28;100.00;96480.41;4999506;28;20038;-67
2023/07/27 08:05:34;;;;;;;10.88;5.50;;;;;;;15.01;100.00;96477.38;5004497;28;20042;-68
2023/07/27 08:08:01;;;;;;;8.32;5.50;;;;;;;15.48;100.00;96478.72;5005668;28;20045;-67
2023/07/27 08:10:26;;;;;;;7.03;4.63;;;;;;;14.74;100.00;96480.63;5000761;28;20046;-68
2023/07/27 08:12:53;;;;;;;8.27;4.80;;;;;;;14.88;100.00;96474.28;5003223;28;20037;-67
2023/07/27 08:15:18;;;;;;;11.45;5.45;;;;;;;15.03;100.00;96472.25;4999474;28;20093;-68
2023/07/27 08:17:44;;;;;;;8.32;4.95;;;;;;;14.95;100.00;96473.50;5003425;28;20065;-67
2023/07/27 08:20:10;;;;;;;7.60;4.90;;;;;;;15.23;100.00;96473.34;4998821;28;20128;-68
2023/07/27 08:22:35;;;;;;;11.90;4.78;;;;;;;15.72;100.00;96475.38;5003074;28;20049;-66
2023/07/27 08:25:01;;;;;;;9.63;4.63;;;;;;;16.10;100.00;96469.97;5004246;28;20085;-68
2023/07/27 08:27:27;;;;;;;7.32;4.32;;;;;;;15.33;100.00;96468.16;4997599;28;20104;-68
2023/07/27 08:29:52;;;;;;;5.85;4.05;;;;;;;14.76;100.00;96474.72;5003404;28;20137;-67
2023/07/27 08:32:17;;;;;;;6.15;3.80;;;;;;;14.87;100.00;96462.50;4998944;28;20100;-67
2023/07/27 08:34:43;;;;;;;8.57;4.35;;;;;;;15.27;100.00;96459.53;5001810;28;20038;-68
2023/07/27 08:37:08;;;;;;;5.57;3.92;;;;;;;15.24;100.00;96455.59;4997307;28;20595;-67
2023/07/27 08:39:34;;;;;;;6.05;3.75;;;;;;;15.08;100.00;96452.53;5004118;28;20151;-67
2023/07/27 08:41:59;;;;;;;6.03;3.90;;;;;;;15.56;100.00;96454.59;5003170;28;20140;-69
2023/07/27 08:44:25;;;;;;;10.40;4.38;;;;;;;16.07;100.00;96463.28;5000042;28;20443;-67
2023/07/27 08:46:51;;;;;;;4.72;3.25;;;;;;;16.41;100.00;96457.81;5003286;28;20050;-66
2023/07/27 08:49:17;;;;;;;8.52;3.53;;;;;;;16.66;100.00;96453.22;4999163;28;20372;-66
2023/07/27 08:51:46;;;;;;;6.90;3.63;;;;;;;16.90;100.00;96451.38;5003476;28;20052;-65
2023/07/27 08:54:12;;;;;;;6.68;3.30;;;;;;;16.78;100.00;96455.44;4995771;28;20077;-66
2023/07/27 08:56:37;;;;;;;10.25;3.63;;;;;;;15.88;100.00;96445.28;5003109;28;20069;-67
2023/07/27 08:59:03;;;;;;;5.68;3.40;;;;;;;16.09;100.00;96451.84;5000472;28;20041;-69
2023/07/27 09:01:28;;;;;;;6.45;3.40;;;;;;;16.73;97.89;96447.63;4998962;28;20654;-68
2023/07/27 09:03:54;;;;;;;7.28;3.40;;;;;;;17.21;91.26;96452.16;5002593;28;20077;-67
2023/07/27 09:06:38;;;;;;;6.78;4.35;;;;;;;17.18;95.18;96455.75;4995640;28;20386;-67
2023/07/27 09:09:22;;;;;;;11.57;4.75;;;;;;;17.65;92.97;96441.25;4997459;28;20034;-68
2023/07/27 09:11:48;;;;;;;7.32;4.40;;;;;;;17.62;94.15;96431.00;5000875;28;20046;-67
2023/07/27 09:14:16;;;;;;;8.55;5.13;;;;;;;17.85;95.61;96428.28;4997736;28;20383;-69
2023/07/27 09:16:43;;;;;;;7.95;4.72;;;;;;;18.18;90.08;96431.25;5002435;28;20042;-67
2023/07/27 09:19:11;;;;;;;7.72;3.97;;;;;;;18.06;88.83;96435.44;4996817;28;20470;-67
2023/07/27 09:21:46;;;;;;;7.78;3.85;;;;;;;18.41;83.61;96432.44;5003657;28;20042;-68
2023/07/27 09:24:16;;;;;;;13.85;5.50;;;;;;;18.53;83.54;96440.13;4998590;28;20141;-68
2023/07/27 09:26:48;;;;;;;13.15;6.10;;;;;;;18.81;84.48;96443.53;5002822;28;20038;-67
2023/07/27 09:29:15;;;;;;;9.80;5.43;;;;;;;18.51;84.98;96435.00;4996320;28;20049;-68
2023/07/27 09:31:48;;;;;;;9.50;6.03;;;;;;;17.19;92.61;96433.19;5001671;28;20045;-68
2023/07/27 09:34:15;;;;;;;11.63;6.25;;;;;;;16.84;98.79;96428.94;5003136;28;20045;-67
2023/07/27 09:36:41;;;;;;;8.15;5.70;;;;;;;17.65;95.63;96421.84;5007611;28;20045;-69
2023/07/27 09:39:06;;;;;;;9.60;5.78;;;;;;;18.15;93.03;96424.59;5000023;28;20046;-66
2023/07/27 09:41:32;;;;;;;11.25;4.85;;;;;;;18.64;86.33;96423.28;5002113;28;20090;-67
2023/07/27 09:44:02;;;;;;;5.75;3.70;;;;;;;18.89;83.97;96418.03;5002758;28;20046;-67
2023/07/27 09:46:27;;;;;;;;;;;;;;;19.04;79.47;96426.84;5003497;28;20124;-66
2023/07/27 09:48:53;;;;;;;7.03;3.50;;;;;;;19.03;78.42;96428.06;5008018;28;19924;-67
2023/07/27 09:51:22;;;;;;;6.10;3.40;;;;;;;18.94;81.45;96421.50;5005449;28;20292;-67
2023/07/27 09:53:50;;;;;;;6.20;3.88;;;;;;;19.24;78.52;96409.34;5010188;28;20048;-67
2023/07/27 09:56:16;;;;;;;7.18;4.03;;;;;;;18.17;83.80;96403.97;5004868;28;20046;-67
2023/07/27 09:58:46;;;;;;;7.32;4.18;;;;;;;17.77;86.60;96402.66;5010147;28;20104;-68
2023/07/27 10:01:11;;;;;;;6.60;3.95;;;;;;;17.38;89.61;96397.75;5005331;28;20034;-68
2023/07/27 10:03:36;;;;;;;5.85;3.50;;;;;;;19.14;81.65;96405.63;5011293;28;20119;-69
2023/07/27 10:06:03;;;;;;;4.30;2.67;;;;;;;20.53;72.22;96410.97;5013291;28;20132;-71
2023/07/27 10:08:29;;;;;;;7.38;3.38;;;;;;;20.28;72.02;96404.06;5019365;28;20100;-69
2023/07/27 10:10:58;;;;;;;5.85;3.00;;;;;;;21.06;64.02;96407.88;5025053;28;20038;-67
2023/07/27 10:13:24;;;;;;;7.38;3.33;;;;;;;22.18;61.61;96414.28;5011677;28;20096;-68
2023/07/27 10:15:51;;;;;;;7.23;3.40;;;;;;;21.69;59.92;96406.34;5010946;28;20049;-69
2023/07/27 10:18:21;;;;;;;4.55;3.05;;;;;;;22.47;58.41;96405.72;5011406;28;20295;-68
2023/07/27 10:20:46;;;;;;;7.45;3.50;;;;;;;23.07;55.57;96395.59;5014342;28;20049;-68
2023/07/27 10:23:28;;;;;;;5.28;2.70;;;;;;;23.26;54.94;96400.06;5003475;28;20100;-68
2023/07/27 10:25:56;;;;;;;4.78;2.88;;;;;;;22.04;58.75;96393.25;5010668;28;20100;-68
2023/07/27 10:28:35;;;;;;;5.30;2.53;;;;;;;21.95;62.98;96387.59;5007833;28;20045;-69
2023/07/27 10:31:15;;;;;;;5.45;3.75;;;;;;;23.32;57.68;96380.66;5010225;28;20060;-68
2023/07/27 10:33:52;;;;;;;7.40;2.60;;;;;;;23.62;53.78;96395.84;5008766;28;20626;-68
2023/07/27 10:36:19;;;;;;;5.57;2.15;;;;;;;23.70;54.23;96392.72;5002968;28;20495;-68
2023/07/27 10:38:55;;;;;;;5.00;2.53;;;;;;;23.62;52.83;96395.84;5008584;28;20041;-68
2023/07/27 10:41:23;;;;;;;6.00;2.50;;;;;;;23.32;53.03;96391.03;5001821;28;20046;-68
2023/07/27 10:44:06;;;;;;;9.73;2.60;;;;;;;22.93;54.53;96382.16;5008512;28;20046;-69
2023/07/27 10:46:34;;;;;;;4.35;2.40;;;;;;;23.26;51.07;96388.88;5008403;28;20038;-66
2023/07/27 10:49:09;;;;;;;5.78;2.35;;;;;;;22.84;54.90;96380.84;5009190;28;20521;-69
2023/07/27 10:51:35;;;;;;;4.10;2.03;;;;;;;23.11;54.80;96371.09;5007592;28;20046;-68
2023/07/27 10:54:01;;;;;;;6.45;2.33;;;;;;;23.01;54.73;96361.88;5006452;28;20049;-67
2023/07/27 10:56:27;;;;;;;9.85;2.38;;;;;;;23.14;53.86;96372.97;4999720;28;20131;-67
2023/07/27 10:58:59;;;;;;;3.92;2.35;;;;;;;23.32;53.77;96363.91;5006472;28;20041;-68
2023/07/27 11:01:24;;;;;;;5.82;2.03;;;;;;;23.50;54.50;96357.59;5001231;28;20514;-67
2023/07/27 11:03:50;;;;;;;3.92;2.00;;;;;;;23.11;53.64;96356.38;5005641;28;20038;-66
2023/07/27 11:06:17;;;;;;;8.23;2.28;;;;;;;23.03;56.35;96355.81;5000244;28;20045;-69
2023/07/27 11:08:43;;;;;;;5.43;2.72;;;;;;;23.58;56.24;96358.09;5005790;28;20042;-67
2023/07/27 11:11:17;;;;;;;5.60;2.30;;;;;;;23.47;56.64;96353.69;5000178;28;20048;-68
2023/07/27 11:14:20;;;;;;;5.13;2.15;;;;;;;23.39;56.70;96344.06;5008466;28;20104;-74
2023/07/27 11:16:46;;;;;;;5.32;2.42;;;;;;;23.12;55.18;96344.75;5005072;28;20038;-68
2023/07/27 11:19:12;;;;;;;5.03;2.40;;;;;;;22.90;59.23;96347.53;5000450;28;20040;-68
2023/07/27 11:21:40;;;;;;;7.93;2.47;;;;;;;22.98;57.75;96336.88;5005857;28;20053;-68
2023/07/27 11:24:07;;;;;;;4.78;2.45;;;;;;;22.85;59.46;96337.75;4999860;28;20138;-69
2023/07/27 11:26:32;;;;;;;4.82;2.47;;;;;;;23.16;58.72;96339.78;5003388;28;20050;-67
2023/07/27 11:29:00;;;;;;;4.13;2.58;;;;;;;22.51;59.20;96344.97;5003153;28;20042;-67